PWSweather.com
Personal Weather Stations
Station Observations
SOUTHSHROPSHIRE
Wheathill, BridgnorthGB Wv16 6QT

WheathillBridgnorthGB Wv16 6QT

Lat: 52.436666, Lon: -2.58768

Elevation: 1056

Station Type: Davis Vantage Vue

Latest ConditionsUpdated 9:00:01 PM GMT Sunday, Jan 19, 2020
Currently Today's Max Today's Min Today's Average
Temperature 34.4°F1.3°C 41.4°F5.2°C 32.2°F0.1°C 36.0°F2.2°C
Dew Point 32.6°F0.3°C 37.6°F3.1°C 29.3°F-1.5°C 33.6°F0.9°C
Winds 1.0 mph W1.6 kmh W 3.0 mph -4.8 kmh - - 0.5 mph 0.8 kmh
Wind Gusts 4.0 mph6.4 kmh 17.0 mph27.4 kmh - -
Humidity 93% 97% 78% 91%
Pressure 30.96 in1048.4 mb 30.97 in1048.8 mb 30.65 in1037.9 mb -
Hour Temp Dew Point Humidity Winds Wind Gusts Pressure Precip Precip Rate Daily Precip Total
09:00 PM 34.4°F1.3°C 32.6°F0.3°C 93% 1.0 mph W1.6 kmh W 4.0 mph6.4 kmh 30.96 in1048.4 mb 0.00 in0.0 mm 0.00 in0.0 mm 0.00 in0.0 mm
08:50 PM 34.1°F1.2°C 32.6°F0.3°C 94% 1.5 mph W2.4 kmh W 3.0 mph4.8 kmh 30.95 in1048.1 mb 0.00 in0.0 mm 0.00 in0.0 mm 0.00 in0.0 mm
08:40 PM 33.7°F0.9°C 32.2°F0.1°C 94% 1.1 mph WSW1.8 kmh WSW 3.0 mph4.8 kmh 30.95 in1048.1 mb 0.00 in0.0 mm 0.00 in0.0 mm 0.00 in0.0 mm
08:30 PM 33.5°F0.8°C 32.0°F0.0°C 94% 0.5 mph WSW0.8 kmh WSW 3.0 mph4.8 kmh 30.95 in1048.1 mb 0.00 in0.0 mm 0.00 in0.0 mm 0.00 in0.0 mm
08:20 PM 33.6°F0.9°C 32.1°F0.1°C 94% 0.2 mph WSW0.3 kmh WSW 1.0 mph1.6 kmh 30.96 in1048.4 mb 0.00 in0.0 mm 0.00 in0.0 mm 0.00 in0.0 mm
08:10 PM 33.7°F0.9°C 32.2°F0.1°C 94% 0.2 mph WSW0.3 kmh WSW 1.0 mph1.6 kmh 30.96 in1048.4 mb 0.00 in0.0 mm 0.00 in0.0 mm 0.00 in0.0 mm
08:00 PM 33.6°F0.9°C 32.3°F0.2°C 95% 0.1 mph WSW0.2 kmh WSW 1.0 mph1.6 kmh 30.96 in1048.4 mb 0.00 in0.0 mm 0.00 in0.0 mm 0.00 in0.0 mm
07:50 PM 33.3°F0.7°C 32.0°F0.0°C 95% Calm Calm 1.0 mph1.6 kmh 30.96 in1048.4 mb 0.00 in0.0 mm 0.00 in0.0 mm 0.00 in0.0 mm
07:40 PM 33.4°F0.8°C 32.1°F0.1°C 95% Calm Calm -- 30.96 in1048.4 mb 0.00 in0.0 mm 0.00 in0.0 mm 0.00 in0.0 mm
07:30 PM 33.8°F1.0°C 32.5°F0.3°C 95% Calm Calm -- 30.96 in1048.4 mb 0.00 in0.0 mm 0.00 in0.0 mm 0.00 in0.0 mm
07:20 PM 33.8°F1.0°C 32.8°F0.4°C 96% Calm Calm -- 30.97 in1048.8 mb 0.00 in0.0 mm 0.00 in0.0 mm 0.00 in0.0 mm
07:10 PM 33.5°F0.8°C 32.5°F0.3°C 96% Calm Calm -- 30.97 in1048.8 mb 0.00 in0.0 mm 0.00 in0.0 mm 0.00 in0.0 mm
07:00 PM 33.3°F0.7°C 32.3°F0.2°C 96% Calm Calm -- 30.96 in1048.4 mb 0.00 in0.0 mm 0.00 in0.0 mm 0.00 in0.0 mm
06:50 PM 33.2°F0.7°C 32.2°F0.1°C 96% Calm Calm 1.0 mph1.6 kmh 30.95 in1048.1 mb 0.00 in0.0 mm 0.00 in0.0 mm 0.00 in0.0 mm
06:40 PM 33.6°F0.9°C 32.6°F0.3°C 96% Calm Calm 1.0 mph1.6 kmh 30.95 in1048.1 mb 0.00 in0.0 mm 0.00 in0.0 mm 0.00 in0.0 mm
06:30 PM 33.5°F0.8°C 32.5°F0.3°C 96% Calm Calm 1.0 mph1.6 kmh 30.95 in1048.1 mb 0.00 in0.0 mm 0.00 in0.0 mm 0.00 in0.0 mm
06:20 PM 33.4°F0.8°C 32.4°F0.2°C 96% Calm Calm 1.0 mph1.6 kmh 30.95 in1048.1 mb 0.00 in0.0 mm 0.00 in0.0 mm 0.00 in0.0 mm
06:10 PM 33.5°F0.8°C 32.5°F0.3°C 96% Calm Calm 1.0 mph1.6 kmh 30.95 in1048.1 mb 0.00 in0.0 mm 0.00 in0.0 mm 0.00 in0.0 mm
06:00 PM 33.5°F0.8°C 32.5°F0.3°C 96% Calm Calm 1.0 mph1.6 kmh 30.94 in1047.7 mb 0.00 in0.0 mm 0.00 in0.0 mm 0.00 in0.0 mm
05:50 PM 33.8°F1.0°C 32.5°F0.3°C 95% Calm Calm -- 30.94 in1047.7 mb 0.00 in0.0 mm 0.00 in0.0 mm 0.00 in0.0 mm
05:40 PM 34.1°F1.2°C 32.8°F0.4°C 95% Calm Calm -- 30.94 in1047.7 mb 0.00 in0.0 mm 0.00 in0.0 mm 0.00 in0.0 mm
05:30 PM 34.3°F1.3°C 33.0°F0.6°C 95% Calm Calm 1.0 mph1.6 kmh 30.93 in1047.4 mb 0.00 in0.0 mm 0.00 in0.0 mm 0.00 in0.0 mm
05:20 PM 34.6°F1.4°C 33.1°F0.6°C 94% Calm Calm -- 30.93 in1047.4 mb 0.00 in0.0 mm 0.00 in0.0 mm 0.00 in0.0 mm
05:10 PM 34.9°F1.6°C 33.3°F0.7°C 94% Calm Calm 1.0 mph1.6 kmh 30.93 in1047.4 mb 0.00 in0.0 mm 0.00 in0.0 mm 0.00 in0.0 mm
05:00 PM 35.2°F1.8°C 33.1°F0.6°C 92% Calm Calm -- 30.94 in1047.7 mb 0.00 in0.0 mm 0.00 in0.0 mm 0.00 in0.0 mm
04:50 PM 36.1°F2.3°C 34.0°F1.1°C 92% Calm Calm -- 30.93 in1047.4 mb 0.00 in0.0 mm 0.00 in0.0 mm 0.00 in0.0 mm
04:40 PM 36.9°F2.7°C 34.5°F1.4°C 91% Calm Calm 1.0 mph1.6 kmh 30.92 in1047.1 mb 0.00 in0.0 mm 0.00 in0.0 mm 0.00 in0.0 mm
04:30 PM 37.7°F3.2°C 35.0°F1.7°C 90% 0.1 mph W0.2 kmh W 1.0 mph1.6 kmh 30.92 in1047.1 mb 0.00 in0.0 mm 0.00 in0.0 mm 0.00 in0.0 mm
04:20 PM 38.3°F3.5°C 35.1°F1.7°C 88% 0.4 mph W0.6 kmh W 2.0 mph3.2 kmh 30.92 in1047.1 mb 0.00 in0.0 mm 0.00 in0.0 mm 0.00 in0.0 mm
04:10 PM 38.8°F3.8°C 35.0°F1.7°C 86% 0.3 mph W0.5 kmh W 2.0 mph3.2 kmh 30.92 in1047.1 mb 0.00 in0.0 mm 0.00 in0.0 mm 0.00 in0.0 mm
04:00 PM 39.1°F3.9°C 34.7°F1.5°C 84% 0.2 mph W0.3 kmh W 2.0 mph3.2 kmh 30.92 in1047.1 mb 0.00 in0.0 mm 0.00 in0.0 mm 0.00 in0.0 mm
03:50 PM 39.1°F3.9°C 34.4°F1.3°C 83% Calm Calm 1.0 mph1.6 kmh 30.91 in1046.7 mb 0.00 in0.0 mm 0.00 in0.0 mm 0.00 in0.0 mm
03:40 PM 39.5°F4.2°C 35.1°F1.7°C 84% Calm Calm 1.0 mph1.6 kmh 30.91 in1046.7 mb 0.00 in0.0 mm 0.00 in0.0 mm 0.00 in0.0 mm
03:30 PM 39.8°F4.3°C 35.7°F2.1°C 85% 0.1 mph WNW0.2 kmh WNW 2.0 mph3.2 kmh 30.91 in1046.7 mb 0.00 in0.0 mm 0.00 in0.0 mm 0.00 in0.0 mm
03:20 PM 40.3°F4.6°C 36.4°F2.4°C 86% 0.2 mph WNW0.3 kmh WNW 2.0 mph3.2 kmh 30.91 in1046.7 mb 0.00 in0.0 mm 0.00 in0.0 mm 0.00 in0.0 mm
03:10 PM 40.6°F4.8°C 35.8°F2.1°C 83% 0.1 mph W0.2 kmh W 2.0 mph3.2 kmh 30.91 in1046.7 mb 0.00 in0.0 mm 0.00 in0.0 mm 0.00 in0.0 mm
03:00 PM 41.4°F5.2°C 36.9°F2.7°C 84% 0.2 mph W0.3 kmh W 2.0 mph3.2 kmh 30.91 in1046.7 mb 0.00 in0.0 mm 0.00 in0.0 mm 0.00 in0.0 mm
02:50 PM 41.3°F5.2°C 36.8°F2.7°C 84% 0.1 mph WNW0.2 kmh WNW 2.0 mph3.2 kmh 30.90 in1046.4 mb 0.00 in0.0 mm 0.00 in0.0 mm 0.00 in0.0 mm
02:40 PM 40.9°F4.9°C 36.7°F2.6°C 85% 0.2 mph W0.3 kmh W 2.0 mph3.2 kmh 30.91 in1046.7 mb 0.00 in0.0 mm 0.00 in0.0 mm 0.00 in0.0 mm
02:30 PM 41.1°F5.1°C 36.9°F2.7°C 85% 0.1 mph W0.2 kmh W 1.0 mph1.6 kmh 30.91 in1046.7 mb 0.00 in0.0 mm 0.00 in0.0 mm 0.00 in0.0 mm
02:20 PM 41.1°F5.1°C 37.2°F2.9°C 86% 0.1 mph W0.2 kmh W 2.0 mph3.2 kmh 30.90 in1046.4 mb 0.00 in0.0 mm 0.00 in0.0 mm 0.00 in0.0 mm
02:10 PM 40.9°F4.9°C 37.6°F3.1°C 88% 0.3 mph W0.5 kmh W 3.0 mph4.8 kmh 30.90 in1046.4 mb 0.00 in0.0 mm 0.00 in0.0 mm 0.00 in0.0 mm
02:00 PM 40.8°F4.9°C 37.5°F3.1°C 88% 0.1 mph W0.2 kmh W 2.0 mph3.2 kmh 30.90 in1046.4 mb 0.00 in0.0 mm 0.00 in0.0 mm 0.00 in0.0 mm
01:50 PM 40.6°F4.8°C 36.1°F2.3°C 84% Calm Calm 1.0 mph1.6 kmh 30.89 in1046.1 mb 0.00 in0.0 mm 0.00 in0.0 mm 0.00 in0.0 mm
01:40 PM 40.4°F4.7°C 34.1°F1.2°C 78% Calm Calm 1.0 mph1.6 kmh 30.89 in1046.1 mb 0.00 in0.0 mm 0.00 in0.0 mm 0.00 in0.0 mm
01:30 PM 40.7°F4.8°C 35.3°F1.8°C 81% 0.1 mph W0.2 kmh W 1.0 mph1.6 kmh 30.89 in1046.1 mb 0.00 in0.0 mm 0.00 in0.0 mm 0.00 in0.0 mm
01:20 PM 40.8°F4.9°C 35.1°F1.7°C 80% Calm Calm 1.0 mph1.6 kmh 30.89 in1046.1 mb 0.00 in0.0 mm 0.00 in0.0 mm 0.00 in0.0 mm
01:10 PM 40.5°F4.7°C 34.8°F1.6°C 80% Calm Calm 1.0 mph1.6 kmh 30.89 in1046.1 mb 0.00 in0.0 mm 0.00 in0.0 mm 0.00 in0.0 mm
01:00 PM 40.6°F4.8°C 36.1°F2.3°C 84% Calm Calm 1.0 mph1.6 kmh 30.89 in1046.1 mb 0.00 in0.0 mm 0.00 in0.0 mm 0.00 in0.0 mm
12:50 PM 40.2°F4.6°C 36.3°F2.4°C 86% 0.1 mph W0.2 kmh W 1.0 mph1.6 kmh 30.89 in1046.1 mb 0.00 in0.0 mm 0.00 in0.0 mm 0.00 in0.0 mm
12:40 PM 40.2°F4.6°C 36.3°F2.4°C 86% Calm Calm 1.0 mph1.6 kmh 30.89 in1046.1 mb 0.00 in0.0 mm 0.00 in0.0 mm 0.00 in0.0 mm
12:30 PM 40.3°F4.6°C 36.7°F2.6°C 87% Calm Calm 1.0 mph1.6 kmh 30.89 in1046.1 mb 0.00 in0.0 mm 0.00 in0.0 mm 0.00 in0.0 mm
12:20 PM 40.2°F4.6°C 36.3°F2.4°C 86% Calm Calm 1.0 mph1.6 kmh 30.89 in1046.1 mb 0.00 in0.0 mm 0.00 in0.0 mm 0.00 in0.0 mm
12:10 PM 40.1°F4.5°C 36.8°F2.7°C 88% Calm Calm 1.0 mph1.6 kmh 30.90 in1046.4 mb 0.00 in0.0 mm 0.00 in0.0 mm 0.00 in0.0 mm
12:00 PM 39.8°F4.3°C 36.8°F2.7°C 89% Calm Calm 1.0 mph1.6 kmh 30.90 in1046.4 mb 0.00 in0.0 mm 0.00 in0.0 mm 0.00 in0.0 mm
11:50 AM 39.4°F4.1°C 36.7°F2.6°C 90% Calm Calm 1.0 mph1.6 kmh 30.90 in1046.4 mb 0.00 in0.0 mm 0.00 in0.0 mm 0.00 in0.0 mm
11:40 AM 39.2°F4.0°C 36.5°F2.5°C 90% Calm Calm 1.0 mph1.6 kmh 30.90 in1046.4 mb 0.00 in0.0 mm 0.00 in0.0 mm 0.00 in0.0 mm
11:30 AM 38.9°F3.8°C 36.5°F2.5°C 91% Calm Calm 1.0 mph1.6 kmh 30.91 in1046.7 mb 0.00 in0.0 mm 0.00 in0.0 mm 0.00 in0.0 mm
11:20 AM 38.6°F3.7°C 36.2°F2.3°C 91% Calm Calm -- 30.91 in1046.7 mb 0.00 in0.0 mm 0.00 in0.0 mm 0.00 in0.0 mm
11:10 AM 38.3°F3.5°C 36.2°F2.3°C 92% Calm Calm 1.0 mph1.6 kmh 30.91 in1046.7 mb 0.00 in0.0 mm 0.00 in0.0 mm 0.00 in0.0 mm
11:00 AM 37.7°F3.2°C 35.0°F1.7°C 90% Calm Calm 1.0 mph1.6 kmh 30.90 in1046.4 mb 0.00 in0.0 mm 0.00 in0.0 mm 0.00 in0.0 mm
10:50 AM 37.5°F3.1°C 34.6°F1.4°C 89% Calm Calm -- 30.90 in1046.4 mb 0.00 in0.0 mm 0.00 in0.0 mm 0.00 in0.0 mm
10:40 AM 36.7°F2.6°C 33.2°F0.7°C 87% Calm Calm 1.0 mph1.6 kmh 30.90 in1046.4 mb 0.00 in0.0 mm 0.00 in0.0 mm 0.00 in0.0 mm
10:30 AM 35.9°F2.2°C 33.5°F0.8°C 91% Calm Calm 1.0 mph1.6 kmh 30.90 in1046.4 mb 0.00 in0.0 mm 0.00 in0.0 mm 0.00 in0.0 mm
10:20 AM 35.3°F1.8°C 32.9°F0.5°C 91% Calm Calm 1.0 mph1.6 kmh 30.89 in1046.1 mb 0.00 in0.0 mm 0.00 in0.0 mm 0.00 in0.0 mm
10:10 AM 34.6°F1.4°C 32.2°F0.1°C 91% Calm Calm 1.0 mph1.6 kmh 30.89 in1046.1 mb 0.00 in0.0 mm 0.00 in0.0 mm 0.00 in0.0 mm
10:00 AM 34.2°F1.2°C 31.6°F-0.2°C 90% Calm Calm -- 30.88 in1045.7 mb 0.00 in0.0 mm 0.00 in0.0 mm 0.00 in0.0 mm
09:50 AM 34.2°F1.2°C 31.6°F-0.2°C 90% Calm Calm 1.0 mph1.6 kmh 30.88 in1045.7 mb 0.00 in0.0 mm 0.00 in0.0 mm 0.00 in0.0 mm
09:40 AM 34.1°F1.2°C 31.2°F-0.4°C 89% Calm Calm 1.0 mph1.6 kmh 30.87 in1045.4 mb 0.00 in0.0 mm 0.00 in0.0 mm 0.00 in0.0 mm
09:30 AM 34.3°F1.3°C 30.8°F-0.7°C 87% Calm Calm 1.0 mph1.6 kmh 30.87 in1045.4 mb 0.00 in0.0 mm 0.00 in0.0 mm 0.00 in0.0 mm
09:20 AM 34.8°F1.6°C 30.8°F-0.7°C 85% Calm Calm 1.0 mph1.6 kmh 30.86 in1045.0 mb 0.00 in0.0 mm 0.00 in0.0 mm 0.00 in0.0 mm
09:10 AM 34.9°F1.6°C 30.0°F-1.1°C 82% Calm Calm 1.0 mph1.6 kmh 30.86 in1045.0 mb 0.00 in0.0 mm 0.00 in0.0 mm 0.00 in0.0 mm
09:00 AM 33.3°F0.7°C 29.3°F-1.5°C 85% 0.2 mph SE0.3 kmh SE 1.0 mph1.6 kmh 30.86 in1045.0 mb 0.00 in0.0 mm 0.00 in0.0 mm 0.00 in0.0 mm
08:50 AM 33.4°F0.8°C 29.4°F-1.4°C 85% 0.1 mph SE0.2 kmh SE 1.0 mph1.6 kmh 30.85 in1044.7 mb 0.00 in0.0 mm 0.00 in0.0 mm 0.00 in0.0 mm
08:40 AM 33.3°F0.7°C 29.8°F-1.2°C 87% 0.1 mph ESE0.2 kmh ESE 1.0 mph1.6 kmh 30.85 in1044.7 mb 0.00 in0.0 mm 0.00 in0.0 mm 0.00 in0.0 mm
08:30 AM 32.8°F0.4°C 30.5°F-0.8°C 91% Calm Calm 1.0 mph1.6 kmh 30.84 in1044.4 mb 0.00 in0.0 mm 0.00 in0.0 mm 0.00 in0.0 mm
08:20 AM 33.1°F0.6°C 30.8°F-0.7°C 91% 0.1 mph ESE0.2 kmh ESE 1.0 mph1.6 kmh 30.84 in1044.4 mb 0.00 in0.0 mm 0.00 in0.0 mm 0.00 in0.0 mm
08:10 AM 33.2°F0.7°C 31.1°F-0.5°C 92% 0.2 mph ESE0.3 kmh ESE 1.0 mph1.6 kmh 30.84 in1044.4 mb 0.00 in0.0 mm 0.00 in0.0 mm 0.00 in0.0 mm
08:00 AM 32.8°F0.4°C 31.8°F-0.1°C 96% 0.1 mph ESE0.2 kmh ESE 1.0 mph1.6 kmh 30.83 in1044.0 mb 0.00 in0.0 mm 0.00 in0.0 mm 0.00 in0.0 mm
07:50 AM 32.8°F0.4°C 32.0°F0.0°C 97% Calm Calm 1.0 mph1.6 kmh 30.82 in1043.7 mb 0.00 in0.0 mm 0.00 in0.0 mm 0.00 in0.0 mm
07:40 AM 32.4°F0.2°C 31.6°F-0.2°C 97% Calm Calm 1.0 mph1.6 kmh 30.82 in1043.7 mb 0.00 in0.0 mm 0.00 in0.0 mm 0.00 in0.0 mm
07:30 AM 32.4°F0.2°C 31.4°F-0.3°C 96% Calm Calm 1.0 mph1.6 kmh 30.81 in1043.3 mb 0.00 in0.0 mm 0.00 in0.0 mm 0.00 in0.0 mm
07:20 AM 32.6°F0.3°C 31.6°F-0.2°C 96% 0.1 mph SE0.2 kmh SE 1.0 mph1.6 kmh 30.81 in1043.3 mb 0.00 in0.0 mm 0.00 in0.0 mm 0.00 in0.0 mm
07:10 AM 32.3°F0.2°C 30.8°F-0.7°C 94% Calm Calm 1.0 mph1.6 kmh 30.80 in1043.0 mb 0.00 in0.0 mm 0.00 in0.0 mm 0.00 in0.0 mm
07:00 AM 32.7°F0.4°C 31.2°F-0.4°C 94% Calm Calm 1.0 mph1.6 kmh 30.79 in1042.7 mb 0.00 in0.0 mm 0.00 in0.0 mm 0.00 in0.0 mm
06:50 AM 32.8°F0.4°C 30.5°F-0.8°C 91% Calm Calm 1.0 mph1.6 kmh 30.79 in1042.7 mb 0.00 in0.0 mm 0.00 in0.0 mm 0.00 in0.0 mm
06:40 AM 33.1°F0.6°C 30.2°F-1.0°C 89% Calm Calm -- 30.78 in1042.3 mb 0.00 in0.0 mm 0.00 in0.0 mm 0.00 in0.0 mm
06:30 AM 33.6°F0.9°C 30.1°F-1.1°C 87% Calm Calm 1.0 mph1.6 kmh 30.78 in1042.3 mb 0.00 in0.0 mm 0.00 in0.0 mm 0.00 in0.0 mm
06:20 AM 33.4°F0.8°C 30.2°F-1.0°C 88% Calm Calm 1.0 mph1.6 kmh 30.77 in1042.0 mb 0.00 in0.0 mm 0.00 in0.0 mm 0.00 in0.0 mm
06:10 AM 33.2°F0.7°C 30.3°F-0.9°C 89% Calm Calm -- 30.77 in1042.0 mb 0.00 in0.0 mm 0.00 in0.0 mm 0.00 in0.0 mm
06:00 AM 33.2°F0.7°C 30.6°F-0.8°C 90% Calm Calm 1.0 mph1.6 kmh 30.76 in1041.7 mb 0.00 in0.0 mm 0.00 in0.0 mm 0.00 in0.0 mm
05:50 AM 32.7°F0.4°C 31.2°F-0.4°C 94% Calm Calm -- 30.76 in1041.7 mb 0.00 in0.0 mm 0.00 in0.0 mm 0.00 in0.0 mm
05:40 AM 32.4°F0.2°C 30.9°F-0.6°C 94% Calm Calm -- 30.75 in1041.3 mb 0.00 in0.0 mm 0.00 in0.0 mm 0.00 in0.0 mm
05:30 AM 32.2°F0.1°C 30.4°F-0.9°C 93% Calm Calm -- 30.75 in1041.3 mb 0.00 in0.0 mm 0.00 in0.0 mm 0.00 in0.0 mm
05:20 AM 32.5°F0.3°C 30.4°F-0.9°C 92% Calm Calm -- 30.75 in1041.3 mb 0.00 in0.0 mm 0.00 in0.0 mm 0.00 in0.0 mm
05:10 AM 32.7°F0.4°C 30.4°F-0.9°C 91% Calm Calm 1.0 mph1.6 kmh 30.75 in1041.3 mb 0.00 in0.0 mm 0.00 in0.0 mm 0.00 in0.0 mm
05:00 AM 33.3°F0.7°C 31.0°F-0.6°C 91% Calm Calm 1.0 mph1.6 kmh 30.75 in1041.3 mb 0.00 in0.0 mm 0.00 in0.0 mm 0.00 in0.0 mm
04:50 AM 33.4°F0.8°C 31.1°F-0.5°C 91% Calm Calm 1.0 mph1.6 kmh 30.74 in1041.0 mb 0.00 in0.0 mm 0.00 in0.0 mm 0.00 in0.0 mm
04:40 AM 33.7°F0.9°C 31.6°F-0.2°C 92% Calm Calm 1.0 mph1.6 kmh 30.74 in1041.0 mb 0.00 in0.0 mm 0.00 in0.0 mm 0.00 in0.0 mm
04:30 AM 33.8°F1.0°C 31.7°F-0.2°C 92% Calm Calm 1.0 mph1.6 kmh 30.74 in1041.0 mb 0.00 in0.0 mm 0.00 in0.0 mm 0.00 in0.0 mm
04:20 AM 34.3°F1.3°C 32.5°F0.3°C 93% Calm Calm 1.0 mph1.6 kmh 30.73 in1040.6 mb 0.00 in0.0 mm 0.00 in0.0 mm 0.00 in0.0 mm
04:10 AM 34.9°F1.6°C 33.1°F0.6°C 93% 0.2 mph NE0.3 kmh NE 4.0 mph6.4 kmh 30.73 in1040.6 mb 0.00 in0.0 mm 0.00 in0.0 mm 0.00 in0.0 mm
04:00 AM 35.4°F1.9°C 33.6°F0.9°C 93% 0.2 mph NNW0.3 kmh NNW 5.0 mph8.0 kmh 30.73 in1040.6 mb 0.00 in0.0 mm 0.00 in0.0 mm 0.00 in0.0 mm
03:50 AM 36.1°F2.3°C 34.3°F1.3°C 93% 1.4 mph NNW2.3 kmh NNW 5.0 mph8.0 kmh 30.72 in1040.3 mb 0.00 in0.0 mm 0.00 in0.0 mm 0.00 in0.0 mm
03:40 AM 36.3°F2.4°C 34.5°F1.4°C 93% 2.4 mph NNW3.9 kmh NNW 8.0 mph12.9 kmh 30.71 in1040.0 mb 0.00 in0.0 mm 0.00 in0.0 mm 0.00 in0.0 mm
03:30 AM 36.4°F2.4°C 34.6°F1.4°C 93% 1.9 mph NW3.1 kmh NW 7.0 mph11.3 kmh 30.71 in1040.0 mb 0.00 in0.0 mm 0.00 in0.0 mm 0.00 in0.0 mm
03:20 AM 36.4°F2.4°C 34.6°F1.4°C 93% 2.1 mph NNW3.4 kmh NNW 5.0 mph8.0 kmh 30.71 in1040.0 mb 0.00 in0.0 mm 0.00 in0.0 mm 0.00 in0.0 mm
03:10 AM 36.5°F2.5°C 34.9°F1.6°C 94% 2.1 mph NW3.4 kmh NW 9.0 mph14.5 kmh 30.71 in1040.0 mb 0.00 in0.0 mm 0.00 in0.0 mm 0.00 in0.0 mm
03:00 AM 36.6°F2.6°C 35.3°F1.8°C 95% 2.5 mph NNW4.0 kmh NNW 8.0 mph12.9 kmh 30.71 in1040.0 mb 0.00 in0.0 mm 0.00 in0.0 mm 0.00 in0.0 mm
02:50 AM 36.8°F2.7°C 35.5°F1.9°C 95% 2.9 mph NNW4.7 kmh NNW 9.0 mph14.5 kmh 30.70 in1039.6 mb 0.00 in0.0 mm 0.00 in0.0 mm 0.00 in0.0 mm
02:40 AM 36.9°F2.7°C 35.6°F2.0°C 95% 2.4 mph NNW3.9 kmh NNW 6.0 mph9.7 kmh 30.71 in1040.0 mb 0.00 in0.0 mm 0.00 in0.0 mm 0.00 in0.0 mm
02:30 AM 37.0°F2.8°C 35.7°F2.1°C 95% 2.6 mph NNW4.2 kmh NNW 9.0 mph14.5 kmh 30.71 in1040.0 mb 0.00 in0.0 mm 0.00 in0.0 mm 0.00 in0.0 mm
02:20 AM 37.1°F2.8°C 35.8°F2.1°C 95% 3.0 mph NNW4.8 kmh NNW 11.0 mph17.7 kmh 30.70 in1039.6 mb 0.00 in0.0 mm 0.00 in0.0 mm 0.00 in0.0 mm
02:10 AM 37.2°F2.9°C 35.9°F2.2°C 95% 2.8 mph NNW4.5 kmh NNW 8.0 mph12.9 kmh 30.69 in1039.3 mb 0.00 in0.0 mm 0.00 in0.0 mm 0.00 in0.0 mm
02:00 AM 37.1°F2.8°C 35.8°F2.1°C 95% 2.4 mph NNW3.9 kmh NNW 8.0 mph12.9 kmh 30.69 in1039.3 mb 0.00 in0.0 mm 0.00 in0.0 mm 0.00 in0.0 mm
01:50 AM 37.1°F2.8°C 36.1°F2.3°C 96% 2.4 mph NNW3.9 kmh NNW 10.0 mph16.1 kmh 30.68 in1038.9 mb 0.00 in0.0 mm 0.00 in0.0 mm 0.00 in0.0 mm
01:40 AM 37.1°F2.8°C 35.8°F2.1°C 95% 2.2 mph NNW3.5 kmh NNW 9.0 mph14.5 kmh 30.68 in1038.9 mb 0.00 in0.0 mm 0.00 in0.0 mm 0.00 in0.0 mm
01:30 AM 37.1°F2.8°C 35.8°F2.1°C 95% 2.0 mph NNW3.2 kmh NNW 8.0 mph12.9 kmh 30.67 in1038.6 mb 0.00 in0.0 mm 0.00 in0.0 mm 0.00 in0.0 mm
01:20 AM 37.3°F2.9°C 36.0°F2.2°C 95% 2.5 mph NNW4.0 kmh NNW 8.0 mph12.9 kmh 30.67 in1038.6 mb 0.00 in0.0 mm 0.00 in0.0 mm 0.00 in0.0 mm
01:10 AM 37.2°F2.9°C 35.9°F2.2°C 95% 1.9 mph NNW3.1 kmh NNW 6.0 mph9.7 kmh 30.67 in1038.6 mb 0.00 in0.0 mm 0.00 in0.0 mm 0.00 in0.0 mm
01:00 AM 37.4°F3.0°C 35.8°F2.1°C 94% 2.5 mph NW4.0 kmh NW 17.0 mph27.4 kmh 30.66 in1038.3 mb 0.00 in0.0 mm 0.00 in0.0 mm 0.00 in0.0 mm
12:50 AM 37.3°F2.9°C 35.7°F2.1°C 94% 3.0 mph NNW4.8 kmh NNW 10.0 mph16.1 kmh 30.66 in1038.3 mb 0.00 in0.0 mm 0.00 in0.0 mm 0.00 in0.0 mm
12:40 AM 37.4°F3.0°C 35.8°F2.1°C 94% 3.0 mph NW4.8 kmh NW 10.0 mph16.1 kmh 30.66 in1038.3 mb 0.00 in0.0 mm 0.00 in0.0 mm 0.00 in0.0 mm
12:30 AM 37.3°F2.9°C 35.7°F2.1°C 94% 2.2 mph NNW3.5 kmh NNW 7.0 mph11.3 kmh 30.66 in1038.3 mb 0.00 in0.0 mm 0.00 in0.0 mm 0.00 in0.0 mm
12:20 AM 37.3°F2.9°C 35.5°F1.9°C 93% 2.2 mph NW3.5 kmh NW 7.0 mph11.3 kmh 30.66 in1038.3 mb 0.00 in0.0 mm 0.00 in0.0 mm 0.00 in0.0 mm
12:10 AM 37.3°F2.9°C 35.5°F1.9°C 93% 2.1 mph NNW3.4 kmh NNW 8.0 mph12.9 kmh 30.66 in1038.3 mb 0.00 in0.0 mm 0.00 in0.0 mm 0.00 in0.0 mm
12:00 AM 37.4°F3.0°C 35.6°F2.0°C 93% 3.0 mph NW4.8 kmh NW 8.0 mph12.9 kmh 30.65 in1037.9 mb 0.00 in0.0 mm 0.00 in0.0 mm 0.00 in0.0 mm